Historyczne dane pomiarowe

Dodano dane terminowe – wersja testowa.

Dane z okresu 1951-2019

Wersja bazy: 1.34 [2019-03-16, lista zmian], aktualizacja planowana na 2019-04-15

Dane meteo z obszaru Polski uzyskane na podstawie danych udostępnionych przez Instytut Meteorologii i Gospodarki Wodnej – Państwowy Instytut Badawczy.

 

Wybierz Datę:    

       

TemperaturaWilgotnośćZachmurzenieWiatrCiśnienieWidzialnośćZjawiska
 Data    tng td wb rh cc ccl cl cm ch dir g1 g2 mslp ppp      
1994-07-08 00:00:00 13.6--- 9.6 11.477wxwxwx3wx--1014.6 974.0 0.9---wxw1
1994-07-08 01:00:00 11.8--- 9.0 10.383wxwxwxwx0wx--1014.6 973.7----wx
1994-07-08 02:00:00 9.4--- 8.4 8.994wxwxwxwxwx1wx--1014.9 973.7----wx
1994-07-08 03:00:00 9.4--- 8.4 8.994wxwxwxwx1wx--1014.8 973.6----wx
1994-07-08 04:00:00 11.6--- 8.0 9.779wxwxwxwx2wx--1014.4 973.5----wx
1994-07-08 05:00:00 13.0--- 8.1 10.472wxwxwxwx4wx--1014.3 973.6----wx
1994-07-08 06:00:00 14.1--- 8.2 10.967wxwxwxwx4wx--1014.0 973.5 0.0---wx
1994-07-08 07:00:00 14.5--- 7.3 10.762wxwxwx4wx--1014.1 973.6----wx
1994-07-08 08:00:00 15.5--- 8.1 11.561wxwxwxwx6wx--1013.5 973.2----wx
1994-07-08 09:00:00 16.1--- 8.0 11.759wxwxwx6wx--1013.5 973.3----wx
1994-07-08 10:00:00 16.3--- 8.2 11.959wxwxwx6wx13-1013.5 973.3----wx
1994-07-08 11:00:00 15.5--- 8.5 11.763wxwxwx5wx11-1013.5 973.2----wx
1994-07-08 12:00:00 14.3--- 10.4 12.177wxwxwx2wx--1013.7 973.2 0.3---wx
1994-07-08 13:00:00 14.3--- 10.0 11.975wxwxwx4wx--1013.9 973.4----wxw1
1994-07-08 14:00:00 15.4--- 7.8 11.360wxwxwx5wx13-1013.8 973.4----wx
1994-07-08 15:00:00 14.4--- 8.7 11.369wxwxwx6wx--1014.2 973.7----wxw1
1994-07-08 16:00:00 14.4--- 8.7 11.369wxwxwx5wx--1013.8 973.3----wxw1
1994-07-08 17:00:00 14.9--- 9.5 11.970wxwxwx4wx--1013.6 973.2----wx
1994-07-08 18:00:00 14.9--- 9.3 11.869wxwxwx4wx--1013.8 973.4 0.0---wxw1
1994-07-08 19:00:00 14.4--- 9.9 11.974wxwxwx3wx--1013.9 973.4----wx
1994-07-08 20:00:00 14.4--- 10.1 12.075wxwxwxwx1wx--1013.9 973.4----wx
1994-07-08 21:00:00 14.4--- 10.1 12.075wxwxwx3wx--1013.9 973.4----wx
1994-07-08 22:00:00 14.9--- 10.3 12.374wxwxwx2wx--1013.6 973.2----wx
1994-07-08 23:00:00 14.5--- 10.6 12.377wxwxwx2wx--1013.9 973.4----wx

 

Źródłem pochodzenia danych jest Instytut Meteorologii i Gospodarki Wodnej – Państwowy Instytut Badawczy. Dane Instytutu Meteorologii i Gospodarki Wodnej – Państwowego Instytutu Badawczego zostały przetworzone.

Dane źródłowe można odnaleźć na stronie https://dane.imgw.pl